ADDS METAR Data INFO
IDs: Format: Raw Decoded Include TAF

Data at: 1317 UTC 11 Dec 2017

KPEO 111253Z AUTO 29004KT 4SM -SN OVC019 M02/M06 A2996 RMK AO2 SNB08 SLP158 P0000 T10221061
KPEO 111218Z AUTO 29004KT 5SM -SN BKN022 OVC040 M02/M06 A2995 RMK AO2 SNB08 P0000 T10221061
KPEO 111153Z AUTO 25007KT 7SM BKN040 BKN046 OVC055 M02/M06 A2995 RMK AO2 SNE19 SLP152 P0000 60001 70001 T10221056 11011 21028 53016
KPEO 111053Z AUTO 22006KT 5SM -SN SCT026 BKN034 OVC044 M02/M05 A2992 RMK AO2 SNE07B43 SLP144 P0000 T10221050
KPEO 111026Z AUTO 22004KT 6SM HZ BKN026 BKN031 OVC060 M02/M05 A2992 RMK AO2 SNE07 P0000 T10221050
KPEO 111001Z AUTO 21005KT 3SM -SN BR SCT028 OVC060 M03/M05 A2991 RMK AO2 P0000 T10281050
KPEO 110958Z AUTO 21006KT 2 1/2SM -SN BR BKN026 OVC060 M03/M05 A2991 RMK AO2 P0000 T10281050
KPEO 110953Z AUTO 20005KT 1 3/4SM -SN BR BKN024 OVC060 M03/M05 A2991 RMK AO2 SLP140 P0001 T10281050
KPEO 110935Z AUTO 22005KT 1SM -SN BR VV017 M03/M05 A2991 RMK AO2 P0001 T10281050 RVRNO
KPEO 110926Z AUTO 23007KT 3/4SM -SN BR VV014 M03/M05 A2991 RMK AO2 P0000 T10281050 RVRNO
KPEO 110900Z AUTO 23007KT 1 1/4SM -SN OVC019 M02/M06 A2990 RMK AO2 P0000 T10221056
KPEO 110853Z AUTO 23006KT 3/4SM -SN BKN019 OVC030 M02/M06 A2990 RMK AO2 SNB0758 SLP137 P0000 60000 T10221061 53010 RVRNO
KPEO 110844Z AUTO 25006KT 1 3/4SM -SN BKN021 OVC030 M02/M06 A2990 RMK AO2 SNB0758 P0000 T10171061
KPEO 110832Z AUTO 23008KT 2 1/2SM -SN BKN025 OVC032 M02/M07 A2990 RMK AO2 SNB0758 P0000 T10171067
KPEO 110830Z AUTO 23007KT 2SM -SN SCT025 OVC030 M02/M07 A2990 RMK AO2 SNB0758 P0000 T10171067
KPEO 110821Z AUTO 25009KT 2SM -SN BKN025 BKN030 OVC038 M02/M07 A2990 RMK AO2 SNB0758 P0000 T10171072
KPEO 110753Z AUTO 22007KT 10SM OVC028 M01/M08 A2989 RMK AO2 SLP133 T10111078
KPEO 110733Z AUTO 22008KT 10SM OVC029 M01/M08 A2989 RMK AO2 T10111078
KPEO 110653Z AUTO 23011KT 10SM OVC031 M01/M08 A2988 RMK AO2 SLP130 T10111078
KPEO 110553Z AUTO 21006KT 10SM OVC035 M01/M08 A2987 RMK AO2 SLP126 T10111083 11006 21011 58001
KPEO 110453Z AUTO 23007KT 10SM FEW038 BKN048 OVC070 M01/M08 A2988 RMK AO2 SLP129 T10111083 400061028
KPEO 110353Z AUTO 23012KT 10SM OVC043 M01/M08 A2988 RMK AO2 SLP128 T10111078
KPEO 110253Z AUTO 22013G18KT 10SM OVC043 M01/M08 A2987 RMK AO2 SLP127 T10111078 53005
KPEO 110153Z AUTO 24013KT 10SM FEW041 OVC080 M01/M08 A2987 RMK AO2 SLP125 T10111078
KPEO 110053Z AUTO 23012G19KT 10SM OVC040 M01/M08 A2986 RMK AO2 SLP122 T10061078
KPEO 102353Z AUTO 23013KT 10SM SCT038 SCT055 OVC080 M01/M08 A2986 RMK AO2 PK WND 25026/2254 SLP122 60000 T10061078 10000 21028 53009
KPEO 102253Z AUTO 24016G23KT 10SM OVC047 M01/M08 A2985 RMK AO2 SLP119 T10061078
KPEO 102153Z AUTO 23015G20KT 10SM FEW040 OVC050 M01/M08 A2983 RMK AO2 SLP114 T10061078
KPEO 102053Z AUTO 00000KT 9SM FEW035 BKN042 OVC050 M02/M05 A2983 RMK AO2 SNE48 SLP113 P0000 60000 T10221050 53000
KPEO 102036Z AUTO 08003KT 3SM -SN BR BKN031 OVC047 M03/M05 A2983 RMK AO2 P0000 T10281050
KPEO 102033Z AUTO 07003KT 2SM -SN BR BKN031 OVC050 M03/M05 A2983 RMK AO2 P0000 T10281050
KPEO 102029Z AUTO 00000KT 1 1/2SM -SN BR OVC029 M03/M05 A2983 RMK AO2 P0000 T10281050
KPEO 102007Z AUTO 00000KT 3/4SM -SN BKN023 OVC033 M02/M05 A2983 RMK AO2 P0000 T10221050 RVRNO
KPEO 101953Z AUTO 00000KT 1SM -SN BKN027 OVC037 M02/M06 A2983 RMK AO2 SLP112 P0000 T10221056 RVRNO
KPEO 101933Z AUTO 00000KT 1 3/4SM -SN BKN037 OVC046 M02/M06 A2982 RMK AO2 P0000 T10221056
KPEO 101928Z AUTO 00000KT 2 1/2SM -SN BKN037 OVC046 M02/M06 A2982 RMK AO2 P0000 T10221056
KPEO 101918Z AUTO 00000KT 2SM -SN BKN033 OVC046 M02/M06 A2982 RMK AO2 P0000 T10221056
KPEO 101853Z AUTO 31005KT 1 1/2SM -SN OVC023 M02/M06 A2983 RMK AO2 SNB1758 SLP112 P0000 T10221061
KPEO 101828Z AUTO 31005KT 1 3/4SM -SN BKN028 OVC036 M02/M07 A2983 RMK AO2 SNB1758 P0000 T10221067
KPEO 101812Z AUTO 30006KT 2 1/2SM -SN FEW030 BKN036 OVC045 M02/M07 A2983 RMK AO2 SNB1758 P0000 T10171067
KPEO 101753Z AUTO 30006KT 10SM FEW027 BKN035 OVC044 M01/M07 A2983 RMK AO2 SNB31E41 SLP111 P0000 60000 T10111072 10006 21017 58005
KPEO 101653Z AUTO 25014KT 10SM FEW035 BKN047 OVC055 M01/M08 A2983 RMK AO2 SNE25 SLP114 P0000 T10061083
KPEO 101553Z AUTO 26010KT 6SM -SN FEW023 SCT034 OVC044 M01/M07 A2985 RMK AO2 SNB00 SLP118 P0000 T10111072
KPEO 101521Z AUTO 27006KT 3SM -SN SCT024 BKN031 OVC041 M02/M07 A2985 RMK AO2 SNB00 P0000 T10171067
KPEO 101506Z AUTO 26010KT 2SM -SN SCT024 BKN030 OVC039 M01/M07 A2985 RMK AO2 SNB00 P0000 T10111067
KPEO 101453Z AUTO 27005KT 7SM SCT025 BKN042 OVC050 M01/M07 A2984 RMK AO2 SLP117 60000 T10111072 51021
KPEO 101430Z AUTO 26011KT 9SM SCT025 SCT034 OVC055 M01/M07 A2983 RMK AO2 T10111072
KPEO 101416Z AUTO 25009KT 9SM BKN024 BKN034 BKN060 M01/M06 A2983 RMK AO2 T10111061
KPEO 101353Z AUTO 25009KT 9SM FEW028 BKN075 M01/M06 A2983 RMK AO2 SNE38 SLP112 P0000 T10111056
KPEO 101346Z AUTO 25007KT 8SM FEW026 BKN075 M01/M06 A2983 RMK AO2 SNE38 P0000 T10111056
KPEO 101338Z AUTO 26007KT 5SM HZ FEW020 BKN026 OVC075 M02/M06 A2982 RMK AO2 SNE38 P0000 T10171056
KPEO 101330Z AUTO 26004KT 2 1/2SM -SN BKN022 OVC029 M02/M06 A2982 RMK AO2 P0000 T10171056
KPEO 101307Z AUTO 27006KT 1 1/2SM -SN OVC022 M01/M06 A2982 RMK AO2 P0000 T10111061
KPEO 101300Z AUTO 29007KT 2SM -SN BKN022 OVC026 M01/M06 A2981 RMK AO2 P0000 T10111061
KPEO 101253Z AUTO 26010KT 6SM -SN OVC023 M01/M06 A2981 RMK AO2 SNB50 SLP107 P0000 T10111061
KPEO 101234Z AUTO 25009KT 10SM BKN026 BKN034 OVC070 M01/M06 A2980 RMK AO2 T10111061
KPEO 101153Z AUTO 24007KT 10SM OVC065 M01/M07 A2978 RMK AO2 SLP097 T10111067 11011 21017 53013
KPEO 101053Z AUTO 25009KT 10SM OVC065 M01/M07 A2977 RMK AO2 SLP093 T10111072
KPEO 100953Z AUTO 24008KT 10SM FEW031 SCT043 OVC065 M01/M07 A2975 RMK AO2 SLP085 T10111072
KPEO 100940Z AUTO 25009KT 9SM SCT027 OVC043 M01/M08 A2975 RMK AO2 T10111078
KPEO 100853Z AUTO 25009KT 10SM BKN025 OVC065 M01/M08 A2974 RMK AO2 SLP082 T10111078 50005
KPEO 100842Z AUTO 25008KT 10SM BKN026 OVC065 M01/M08 A2974 RMK AO2 T10111078
KPEO 100835Z AUTO 24010KT 10SM SCT026 OVC065 M01/M08 A2974 RMK AO2 T10111078
KPEO 100812Z AUTO 24010KT 9SM BKN028 OVC035 M01/M08 A2974 RMK AO2 T10111078
KPEO 100753Z AUTO 24008KT 10SM FEW030 BKN037 OVC055 M01/M08 A2974 RMK AO2 SLP082 T10111083
KPEO 100735Z AUTO 24007KT 10SM SCT030 BKN041 OVC055 M01/M08 A2974 RMK AO2 T10111083
KPEO 100653Z AUTO 24007KT 10SM BKN029 BKN035 OVC055 M01/M08 A2973 RMK AO2 SLP079 T10111083
KPEO 100553Z AUTO 23007KT 10SM OVC055 M02/M09 A2973 RMK AO2 SLP077 T10171094 11011 21044 58004
KPEO 100453Z AUTO 24004KT 10SM OVC070 M02/M10 A2974 RMK AO2 SLP080 T10171100 400111061
KPEO 100353Z AUTO 20004KT 10SM BKN095 OVC110 M02/M11 A2973 RMK AO2 SLP080 T10171106
KPEO 100253Z AUTO 00000KT 10SM FEW110 M02/M11 A2974 RMK AO2 SLP081 T10171111 53001
KPEO 100153Z AUTO 28004KT 10SM CLR M01/M09 A2972 RMK AO2 SLP076 T10111094